sensor_id;sensor_type;location;lat;lon;timestamp;temperature;humidity
13174;DHT22;6652;48.802;9.190;2023-02-01T00:00:17;4.60;99.00
13174;DHT22;6652;48.802;9.190;2023-02-01T00:02:44;4.60;99.00
13174;DHT22;6652;48.802;9.190;2023-02-01T00:05:11;4.60;99.10
13174;DHT22;6652;48.802;9.190;2023-02-01T00:07:39;4.60;99.10
13174;DHT22;6652;48.802;9.190;2023-02-01T00:10:07;4.60;99.10
13174;DHT22;6652;48.802;9.190;2023-02-01T00:12:34;4.60;99.20
13174;DHT22;6652;48.802;9.190;2023-02-01T00:15:01;4.70;99.20
13174;DHT22;6652;48.802;9.190;2023-02-01T00:17:28;4.70;99.20
13174;DHT22;6652;48.802;9.190;2023-02-01T00:19:55;4.70;99.10
13174;DHT22;6652;48.802;9.190;2023-02-01T00:22:22;4.70;99.20
13174;DHT22;6652;48.802;9.190;2023-02-01T00:24:50;4.70;99.20
13174;DHT22;6652;48.802;9.190;2023-02-01T00:27:17;4.70;99.20
13174;DHT22;6652;48.802;9.190;2023-02-01T00:29:46;4.70;99.10
13174;DHT22;6652;48.802;9.190;2023-02-01T00:32:13;4.70;99.20
13174;DHT22;6652;48.802;9.190;2023-02-01T00:34:40;4.80;99.30
13174;DHT22;6652;48.802;9.190;2023-02-01T00:37:06;4.70;99.20
13174;DHT22;6652;48.802;9.190;2023-02-01T00:39:34;4.70;99.10
13174;DHT22;6652;48.802;9.190;2023-02-01T00:42:02;4.80;99.20
13174;DHT22;6652;48.802;9.190;2023-02-01T00:44:29;4.70;99.10
13174;DHT22;6652;48.802;9.190;2023-02-01T00:46:59;4.70;99.50
13174;DHT22;6652;48.802;9.190;2023-02-01T00:49:25;4.70;99.10
13174;DHT22;6652;48.802;9.190;2023-02-01T00:51:52;4.70;99.10
13174;DHT22;6652;48.802;9.190;2023-02-01T00:54:19;4.80;99.10
13174;DHT22;6652;48.802;9.190;2023-02-01T00:56:46;4.80;99.00
13174;DHT22;6652;48.802;9.190;2023-02-01T00:59:14;4.80;99.00
13174;DHT22;6652;48.802;9.190;2023-02-01T01:01:41;4.80;99.00
13174;DHT22;6652;48.802;9.190;2023-02-01T01:04:08;4.80;99.00
13174;DHT22;6652;48.802;9.190;2023-02-01T01:06:35;4.80;99.10
13174;DHT22;6652;48.802;9.190;2023-02-01T01:09:04;4.80;99.00
13174;DHT22;6652;48.802;9.190;2023-02-01T01:11:32;4.80;99.00
13174;DHT22;6652;48.802;9.190;2023-02-01T01:14:00;4.80;99.00
13174;DHT22;6652;48.802;9.190;2023-02-01T01:16:30;4.70;99.00
13174;DHT22;6652;48.802;9.190;2023-02-01T01:18:57;4.80;99.00
13174;DHT22;6652;48.802;9.190;2023-02-01T01:21:25;4.70;99.00
13174;DHT22;6652;48.802;9.190;2023-02-01T01:23:52;4.70;99.00
13174;DHT22;6652;48.802;9.190;2023-02-01T01:26:21;4.70;99.10
13174;DHT22;6652;48.802;9.190;2023-02-01T01:28:49;4.70;99.20
13174;DHT22;6652;48.802;9.190;2023-02-01T01:31:17;4.70;99.20
13174;DHT22;6652;48.802;9.190;2023-02-01T01:33:47;4.60;99.10
13174;DHT22;6652;48.802;9.190;2023-02-01T01:36:15;4.70;99.20
13174;DHT22;6652;48.802;9.190;2023-02-01T01:38:42;4.70;99.20
13174;DHT22;6652;48.802;9.190;2023-02-01T01:41:13;5.10;99.30
13174;DHT22;6652;48.802;9.190;2023-02-01T01:43:48;4.70;99.10
13174;DHT22;6652;48.802;9.190;2023-02-01T01:46:17;4.70;99.10
13174;DHT22;6652;48.802;9.190;2023-02-01T01:48:45;4.70;99.10
13174;DHT22;6652;48.802;9.190;2023-02-01T01:51:14;4.80;99.10
13174;DHT22;6652;48.802;9.190;2023-02-01T01:53:46;4.80;99.00
13174;DHT22;6652;48.802;9.190;2023-02-01T01:56:14;4.80;99.30
13174;DHT22;6652;48.802;9.190;2023-02-01T01:58:41;4.80;98.90
13174;DHT22;6652;48.802;9.190;2023-02-01T02:01:09;4.90;99.00
13174;DHT22;6652;48.802;9.190;2023-02-01T02:03:39;4.90;99.00
13174;DHT22;6652;48.802;9.190;2023-02-01T02:06:12;4.90;99.00
13174;DHT22;6652;48.802;9.190;2023-02-01T02:08:42;4.90;98.90
13174;DHT22;6652;48.802;9.190;2023-02-01T02:11:11;4.90;98.90
13174;DHT22;6652;48.802;9.190;2023-02-01T02:13:40;4.90;98.90
13174;DHT22;6652;48.802;9.190;2023-02-01T02:16:35;4.90;98.80
13174;DHT22;6652;48.802;9.190;2023-02-01T02:19:28;4.90;98.90
13174;DHT22;6652;48.802;9.190;2023-02-01T02:22:33;4.90;98.80
13174;DHT22;6652;48.802;9.190;2023-02-01T02:25:24;4.90;99.20
13174;DHT22;6652;48.802;9.190;2023-02-01T02:28:01;4.90;98.80
13174;DHT22;6652;48.802;9.190;2023-02-01T02:30:41;4.90;98.80
13174;DHT22;6652;48.802;9.190;2023-02-01T02:33:53;4.80;98.70
13174;DHT22;6652;48.802;9.190;2023-02-01T02:36:30;4.90;98.80
13174;DHT22;6652;48.802;9.190;2023-02-01T02:39:05;4.90;98.70
13174;DHT22;6652;48.802;9.190;2023-02-01T02:41:40;4.90;98.70
13174;DHT22;6652;48.802;9.190;2023-02-01T02:44:34;5.00;98.70
13174;DHT22;6652;48.802;9.190;2023-02-01T02:47:24;4.90;98.70
13174;DHT22;6652;48.802;9.190;2023-02-01T02:49:56;5.00;98.70
13174;DHT22;6652;48.802;9.190;2023-02-01T02:52:45;5.00;98.70
13174;DHT22;6652;48.802;9.190;2023-02-01T02:55:33;5.00;98.60
13174;DHT22;6652;48.802;9.190;2023-02-01T02:58:03;5.00;98.60
13174;DHT22;6652;48.802;9.190;2023-02-01T03:00:49;5.00;98.70
13174;DHT22;6652;48.802;9.190;2023-02-01T03:03:36;5.00;98.80
13174;DHT22;6652;48.802;9.190;2023-02-01T03:06:23;5.00;98.80
13174;DHT22;6652;48.802;9.190;2023-02-01T03:08:50;5.00;98.90
13174;DHT22;6652;48.802;9.190;2023-02-01T03:11:20;5.00;98.80
13174;DHT22;6652;48.802;9.190;2023-02-01T03:13:51;4.90;98.80
13174;DHT22;6652;48.802;9.190;2023-02-01T03:16:20;5.00;99.00
13174;DHT22;6652;48.802;9.190;2023-02-01T03:18:55;5.00;99.00
13174;DHT22;6652;48.802;9.190;2023-02-01T03:21:28;4.90;99.00
13174;DHT22;6652;48.802;9.190;2023-02-01T03:24:02;4.90;99.00
13174;DHT22;6652;48.802;9.190;2023-02-01T03:26:37;4.90;99.10
13174;DHT22;6652;48.802;9.190;2023-02-01T03:29:10;4.90;99.20
13174;DHT22;6652;48.802;9.190;2023-02-01T03:31:38;4.90;99.20
13174;DHT22;6652;48.802;9.190;2023-02-01T03:34:04;4.90;99.20
13174;DHT22;6652;48.802;9.190;2023-02-01T03:36:36;4.90;99.30
13174;DHT22;6652;48.802;9.190;2023-02-01T03:39:09;4.80;99.30
13174;DHT22;6652;48.802;9.190;2023-02-01T03:41:40;4.80;99.50
13174;DHT22;6652;48.802;9.190;2023-02-01T03:44:13;4.80;99.60
13174;DHT22;6652;48.802;9.190;2023-02-01T03:46:44;4.80;99.70
13174;DHT22;6652;48.802;9.190;2023-02-01T03:49:17;4.80;99.70
13174;DHT22;6652;48.802;9.190;2023-02-01T03:51:46;4.80;99.80
13174;DHT22;6652;48.802;9.190;2023-02-01T03:54:29;4.80;99.80
13174;DHT22;6652;48.802;9.190;2023-02-01T03:56:59;4.80;99.80
13174;DHT22;6652;48.802;9.190;2023-02-01T03:59:27;4.80;99.80
13174;DHT22;6652;48.802;9.190;2023-02-01T04:01:53;4.80;99.80
13174;DHT22;6652;48.802;9.190;2023-02-01T04:04:20;4.80;99.80
13174;DHT22;6652;48.802;9.190;2023-02-01T04:06:50;4.90;99.80
13174;DHT22;6652;48.802;9.190;2023-02-01T04:09:17;4.90;99.80
13174;DHT22;6652;48.802;9.190;2023-02-01T04:11:44;4.90;99.80
13174;DHT22;6652;48.802;9.190;2023-02-01T04:14:11;4.90;99.90
13174;DHT22;6652;48.802;9.190;2023-02-01T04:16:37;4.80;99.90
13174;DHT22;6652;48.802;9.190;2023-02-01T04:19:04;4.80;99.90
13174;DHT22;6652;48.802;9.190;2023-02-01T04:21:31;4.90;99.90
13174;DHT22;6652;48.802;9.190;2023-02-01T04:23:59;4.90;99.90
13174;DHT22;6652;48.802;9.190;2023-02-01T04:26:26;4.80;99.90
13174;DHT22;6652;48.802;9.190;2023-02-01T04:28:53;4.90;99.90
13174;DHT22;6652;48.802;9.190;2023-02-01T04:31:20;4.90;99.90
13174;DHT22;6652;48.802;9.190;2023-02-01T04:33:51;4.90;99.90
13174;DHT22;6652;48.802;9.190;2023-02-01T04:36:18;4.90;99.90
13174;DHT22;6652;48.802;9.190;2023-02-01T04:38:47;4.90;99.90
13174;DHT22;6652;48.802;9.190;2023-02-01T04:41:15;4.90;99.90
13174;DHT22;6652;48.802;9.190;2023-02-01T04:43:44;5.00;99.90
13174;DHT22;6652;48.802;9.190;2023-02-01T04:46:11;5.10;99.90
13174;DHT22;6652;48.802;9.190;2023-02-01T04:48:38;4.80;99.90
13174;DHT22;6652;48.802;9.190;2023-02-01T04:51:05;4.80;99.90
13174;DHT22;6652;48.802;9.190;2023-02-01T04:53:31;4.90;99.90
13174;DHT22;6652;48.802;9.190;2023-02-01T04:55:58;4.90;99.90
13174;DHT22;6652;48.802;9.190;2023-02-01T04:58:26;4.90;99.90
13174;DHT22;6652;48.802;9.190;2023-02-01T05:00:53;4.90;99.90
13174;DHT22;6652;48.802;9.190;2023-02-01T05:03:20;4.90;99.90
13174;DHT22;6652;48.802;9.190;2023-02-01T05:05:47;4.90;99.90
13174;DHT22;6652;48.802;9.190;2023-02-01T05:08:14;4.90;99.90
13174;DHT22;6652;48.802;9.190;2023-02-01T05:10:41;4.90;99.90
13174;DHT22;6652;48.802;9.190;2023-02-01T05:13:08;4.90;99.90
13174;DHT22;6652;48.802;9.190;2023-02-01T05:15:54;5.00;99.90
13174;DHT22;6652;48.802;9.190;2023-02-01T05:18:21;5.00;99.90
13174;DHT22;6652;48.802;9.190;2023-02-01T05:20:48;5.00;99.80
13174;DHT22;6652;48.802;9.190;2023-02-01T05:23:15;5.10;99.70
13174;DHT22;6652;48.802;9.190;2023-02-01T05:25:41;5.10;99.70
13174;DHT22;6652;48.802;9.190;2023-02-01T05:28:08;5.10;99.60
13174;DHT22;6652;48.802;9.190;2023-02-01T05:30:35;5.20;99.60
13174;DHT22;6652;48.802;9.190;2023-02-01T05:33:04;5.20;99.50
13174;DHT22;6652;48.802;9.190;2023-02-01T05:35:31;5.20;99.40
13174;DHT22;6652;48.802;9.190;2023-02-01T05:37:58;5.20;99.40
13174;DHT22;6652;48.802;9.190;2023-02-01T05:40:25;5.20;99.30
13174;DHT22;6652;48.802;9.190;2023-02-01T05:42:52;5.20;99.30
13174;DHT22;6652;48.802;9.190;2023-02-01T05:45:19;5.20;99.20
13174;DHT22;6652;48.802;9.190;2023-02-01T05:47:45;5.20;99.20
13174;DHT22;6652;48.802;9.190;2023-02-01T05:50:15;5.30;99.20
13174;DHT22;6652;48.802;9.190;2023-02-01T05:52:42;5.30;99.20
13174;DHT22;6652;48.802;9.190;2023-02-01T05:55:09;5.40;99.20
13174;DHT22;6652;48.802;9.190;2023-02-01T05:57:35;5.30;99.20
13174;DHT22;6652;48.802;9.190;2023-02-01T06:00:03;5.30;99.30
13174;DHT22;6652;48.802;9.190;2023-02-01T06:02:30;5.40;99.40
13174;DHT22;6652;48.802;9.190;2023-02-01T06:04:57;5.40;99.40
13174;DHT22;6652;48.802;9.190;2023-02-01T06:07:25;5.40;99.40
13174;DHT22;6652;48.802;9.190;2023-02-01T06:09:52;5.30;99.40
13174;DHT22;6652;48.802;9.190;2023-02-01T06:12:19;5.30;99.70
13174;DHT22;6652;48.802;9.190;2023-02-01T06:14:45;5.30;99.70
13174;DHT22;6652;48.802;9.190;2023-02-01T06:17:12;5.20;99.70
13174;DHT22;6652;48.802;9.190;2023-02-01T06:19:39;5.10;99.70
13174;DHT22;6652;48.802;9.190;2023-02-01T06:22:07;5.10;99.80
13174;DHT22;6652;48.802;9.190;2023-02-01T06:24:35;5.10;99.90
13174;DHT22;6652;48.802;9.190;2023-02-01T06:27:02;5.10;99.90
13174;DHT22;6652;48.802;9.190;2023-02-01T06:29:28;5.00;99.90
13174;DHT22;6652;48.802;9.190;2023-02-01T06:31:55;5.10;99.90
13174;DHT22;6652;48.802;9.190;2023-02-01T06:34:24;5.00;99.90
13174;DHT22;6652;48.802;9.190;2023-02-01T06:36:51;5.10;99.90
13174;DHT22;6652;48.802;9.190;2023-02-01T06:39:18;5.10;99.90
13174;DHT22;6652;48.802;9.190;2023-02-01T06:41:47;5.10;99.90
13174;DHT22;6652;48.802;9.190;2023-02-01T06:44:15;5.20;99.90
13174;DHT22;6652;48.802;9.190;2023-02-01T06:46:42;5.20;99.90
13174;DHT22;6652;48.802;9.190;2023-02-01T06:49:09;5.20;99.80
13174;DHT22;6652;48.802;9.190;2023-02-01T06:51:36;5.30;99.90
13174;DHT22;6652;48.802;9.190;2023-02-01T06:54:03;5.20;99.80
13174;DHT22;6652;48.802;9.190;2023-02-01T06:56:30;5.30;99.80
13174;DHT22;6652;48.802;9.190;2023-02-01T06:58:59;5.30;99.80
13174;DHT22;6652;48.802;9.190;2023-02-01T07:01:27;5.30;99.80
13174;DHT22;6652;48.802;9.190;2023-02-01T07:03:54;5.30;99.80
13174;DHT22;6652;48.802;9.190;2023-02-01T07:06:20;5.30;99.70
13174;DHT22;6652;48.802;9.190;2023-02-01T07:08:48;5.30;99.70
13174;DHT22;6652;48.802;9.190;2023-02-01T07:11:15;5.40;99.70
13174;DHT22;6652;48.802;9.190;2023-02-01T07:13:43;5.40;99.70
13174;DHT22;6652;48.802;9.190;2023-02-01T07:16:13;5.40;99.60
13174;DHT22;6652;48.802;9.190;2023-02-01T07:18:40;5.50;99.50
13174;DHT22;6652;48.802;9.190;2023-02-01T07:21:07;5.50;99.80
13174;DHT22;6652;48.802;9.190;2023-02-01T07:23:34;5.50;99.40
13174;DHT22;6652;48.802;9.190;2023-02-01T07:26:02;5.60;99.40
13174;DHT22;6652;48.802;9.190;2023-02-01T07:28:31;5.60;99.30
13174;DHT22;6652;48.802;9.190;2023-02-01T07:31:02;5.60;99.30
13174;DHT22;6652;48.802;9.190;2023-02-01T07:33:30;5.70;99.30
13174;DHT22;6652;48.802;9.190;2023-02-01T07:35:57;5.60;99.20
13174;DHT22;6652;48.802;9.190;2023-02-01T07:38:26;5.60;99.20
13174;DHT22;6652;48.802;9.190;2023-02-01T07:40:57;5.60;99.10
13174;DHT22;6652;48.802;9.190;2023-02-01T07:43:25;5.70;99.20
13174;DHT22;6652;48.802;9.190;2023-02-01T07:45:51;5.60;99.00
13174;DHT22;6652;48.802;9.190;2023-02-01T07:48:18;5.70;99.10
13174;DHT22;6652;48.802;9.190;2023-02-01T07:50:47;5.70;98.90
13174;DHT22;6652;48.802;9.190;2023-02-01T07:53:13;5.80;99.00
13174;DHT22;6652;48.802;9.190;2023-02-01T07:55:40;5.80;98.90
13174;DHT22;6652;48.802;9.190;2023-02-01T07:58:07;5.90;98.80
13174;DHT22;6652;48.802;9.190;2023-02-01T08:00:34;6.00;98.70
13174;DHT22;6652;48.802;9.190;2023-02-01T08:03:18;6.00;98.60
13174;DHT22;6652;48.802;9.190;2023-02-01T08:05:46;6.00;98.20
13174;DHT22;6652;48.802;9.190;2023-02-01T08:08:13;6.10;98.00
13174;DHT22;6652;48.802;9.190;2023-02-01T08:10:40;6.10;97.90
13174;DHT22;6652;48.802;9.190;2023-02-01T08:13:06;6.20;97.50
13174;DHT22;6652;48.802;9.190;2023-02-01T08:15:33;6.20;97.20
13174;DHT22;6652;48.802;9.190;2023-02-01T08:18:00;6.30;96.90
13174;DHT22;6652;48.802;9.190;2023-02-01T08:20:28;6.30;96.40
13174;DHT22;6652;48.802;9.190;2023-02-01T08:22:56;6.30;96.50
13174;DHT22;6652;48.802;9.190;2023-02-01T08:25:23;6.30;96.30
13174;DHT22;6652;48.802;9.190;2023-02-01T08:28:00;6.40;96.30
13174;DHT22;6652;48.802;9.190;2023-02-01T08:30:27;6.40;96.20
13174;DHT22;6652;48.802;9.190;2023-02-01T08:33:01;6.60;96.10
13174;DHT22;6652;48.802;9.190;2023-02-01T08:35:31;7.00;96.20
13174;DHT22;6652;48.802;9.190;2023-02-01T08:38:13;6.70;95.80
13174;DHT22;6652;48.802;9.190;2023-02-01T08:40:39;6.90;95.50
13174;DHT22;6652;48.802;9.190;2023-02-01T08:43:07;6.80;95.30
13174;DHT22;6652;48.802;9.190;2023-02-01T08:45:33;6.90;95.40
13174;DHT22;6652;48.802;9.190;2023-02-01T08:48:00;7.10;94.90
13174;DHT22;6652;48.802;9.190;2023-02-01T08:50:27;7.20;94.80
13174;DHT22;6652;48.802;9.190;2023-02-01T08:52:54;7.30;94.60
13174;DHT22;6652;48.802;9.190;2023-02-01T08:55:22;7.40;94.20
13174;DHT22;6652;48.802;9.190;2023-02-01T08:57:49;7.40;94.10
13174;DHT22;6652;48.802;9.190;2023-02-01T09:00:16;7.30;93.80
13174;DHT22;6652;48.802;9.190;2023-02-01T09:02:45;7.30;94.10
13174;DHT22;6652;48.802;9.190;2023-02-01T09:05:16;7.20;94.00
13174;DHT22;6652;48.802;9.190;2023-02-01T09:07:47;7.20;94.10
13174;DHT22;6652;48.802;9.190;2023-02-01T09:10:14;7.10;93.90
13174;DHT22;6652;48.802;9.190;2023-02-01T09:12:42;7.90;94.50
13174;DHT22;6652;48.802;9.190;2023-02-01T09:15:09;7.10;94.10
13174;DHT22;6652;48.802;9.190;2023-02-01T09:17:35;7.00;94.00
13174;DHT22;6652;48.802;9.190;2023-02-01T09:20:03;7.00;94.00
13174;DHT22;6652;48.802;9.190;2023-02-01T09:22:30;6.90;94.10
13174;DHT22;6652;48.802;9.190;2023-02-01T09:24:56;6.80;94.20
13174;DHT22;6652;48.802;9.190;2023-02-01T09:27:23;6.80;94.30
13174;DHT22;6652;48.802;9.190;2023-02-01T09:29:51;6.90;94.80
13174;DHT22;6652;48.802;9.190;2023-02-01T09:32:19;6.90;94.40
13174;DHT22;6652;48.802;9.190;2023-02-01T09:34:46;7.10;94.50
13174;DHT22;6652;48.802;9.190;2023-02-01T09:37:12;7.30;94.40
13174;DHT22;6652;48.802;9.190;2023-02-01T09:39:39;7.40;94.00
13174;DHT22;6652;48.802;9.190;2023-02-01T09:42:16;8.30;94.20
13174;DHT22;6652;48.802;9.190;2023-02-01T09:47:35;7.60;93.50
13174;DHT22;6652;48.802;9.190;2023-02-01T09:50:05;7.60;93.30
13174;DHT22;6652;48.802;9.190;2023-02-01T09:52:40;7.60;93.00
13174;DHT22;6652;48.802;9.190;2023-02-01T09:55:13;7.70;93.10
13174;DHT22;6652;48.802;9.190;2023-02-01T09:57:47;7.70;92.90
13174;DHT22;6652;48.802;9.190;2023-02-01T10:00:19;8.70;92.80
13174;DHT22;6652;48.802;9.190;2023-02-01T10:02:48;7.60;92.50
13174;DHT22;6652;48.802;9.190;2023-02-01T10:05:20;7.60;92.60
13174;DHT22;6652;48.802;9.190;2023-02-01T10:07:57;7.70;92.60
13174;DHT22;6652;48.802;9.190;2023-02-01T10:10:30;8.10;92.50
13174;DHT22;6652;48.802;9.190;2023-02-01T10:13:26;7.80;92.30
13174;DHT22;6652;48.802;9.190;2023-02-01T10:16:13;7.80;92.40
13174;DHT22;6652;48.802;9.190;2023-02-01T10:19:00;7.80;92.20
13174;DHT22;6652;48.802;9.190;2023-02-01T10:21:39;7.90;92.20
13174;DHT22;6652;48.802;9.190;2023-02-01T10:24:20;7.90;91.80
13174;DHT22;6652;48.802;9.190;2023-02-01T10:26:53;8.00;91.90
13174;DHT22;6652;48.802;9.190;2023-02-01T10:29:25;8.10;91.90
13174;DHT22;6652;48.802;9.190;2023-02-01T10:31:54;8.30;91.70
13174;DHT22;6652;48.802;9.190;2023-02-01T10:34:27;8.60;91.40
13174;DHT22;6652;48.802;9.190;2023-02-01T10:37:00;8.60;91.00
13174;DHT22;6652;48.802;9.190;2023-02-01T10:39:27;8.60;90.60
13174;DHT22;6652;48.802;9.190;2023-02-01T10:41:55;8.40;90.40
13174;DHT22;6652;48.802;9.190;2023-02-01T10:44:26;8.20;90.40
13174;DHT22;6652;48.802;9.190;2023-02-01T10:46:53;8.00;90.40
13174;DHT22;6652;48.802;9.190;2023-02-01T10:49:24;8.00;90.80
13174;DHT22;6652;48.802;9.190;2023-02-01T10:51:57;8.00;90.80
13174;DHT22;6652;48.802;9.190;2023-02-01T10:54:33;8.20;90.90
13174;DHT22;6652;48.802;9.190;2023-02-01T10:57:00;8.30;90.70
13174;DHT22;6652;48.802;9.190;2023-02-01T10:59:28;8.30;90.60
13174;DHT22;6652;48.802;9.190;2023-02-01T11:01:59;8.30;90.40
13174;DHT22;6652;48.802;9.190;2023-02-01T11:04:37;9.60;90.80
13174;DHT22;6652;48.802;9.190;2023-02-01T11:07:17;8.70;90.30
13174;DHT22;6652;48.802;9.190;2023-02-01T11:09:50;8.40;90.20
13174;DHT22;6652;48.802;9.190;2023-02-01T11:12:28;8.40;90.20
13174;DHT22;6652;48.802;9.190;2023-02-01T11:14:59;8.30;90.10
13174;DHT22;6652;48.802;9.190;2023-02-01T11:17:32;8.30;90.10
13174;DHT22;6652;48.802;9.190;2023-02-01T11:20:32;8.20;89.50
13174;DHT22;6652;48.802;9.190;2023-02-01T11:23:01;8.10;90.00
13174;DHT22;6652;48.802;9.190;2023-02-01T11:25:36;8.10;90.00
13174;DHT22;6652;48.802;9.190;2023-02-01T11:28:04;8.00;89.60
13174;DHT22;6652;48.802;9.190;2023-02-01T11:30:34;8.00;89.70
13174;DHT22;6652;48.802;9.190;2023-02-01T11:33:04;7.90;89.90
13174;DHT22;6652;48.802;9.190;2023-02-01T11:35:36;7.80;89.80
13174;DHT22;6652;48.802;9.190;2023-02-01T11:38:12;7.90;89.90
13174;DHT22;6652;48.802;9.190;2023-02-01T11:40:40;7.90;89.90
13174;DHT22;6652;48.802;9.190;2023-02-01T11:43:13;8.00;90.00
13174;DHT22;6652;48.802;9.190;2023-02-01T11:45:40;8.10;89.40
13174;DHT22;6652;48.802;9.190;2023-02-01T11:48:09;8.00;89.20
13174;DHT22;6652;48.802;9.190;2023-02-01T11:50:42;8.00;88.90
13174;DHT22;6652;48.802;9.190;2023-02-01T11:53:31;8.00;88.80
13174;DHT22;6652;48.802;9.190;2023-02-01T11:56:10;8.00;88.90
13174;DHT22;6652;48.802;9.190;2023-02-01T11:59:00;8.10;88.80
13174;DHT22;6652;48.802;9.190;2023-02-01T12:01:36;8.20;88.40
13174;DHT22;6652;48.802;9.190;2023-02-01T12:04:39;8.30;87.90
13174;DHT22;6652;48.802;9.190;2023-02-01T12:07:14;8.50;87.50
13174;DHT22;6652;48.802;9.190;2023-02-01T12:09:53;8.50;86.70
13174;DHT22;6652;48.802;9.190;2023-02-01T12:12:25;8.40;86.60
13174;DHT22;6652;48.802;9.190;2023-02-01T12:15:16;8.30;87.00
13174;DHT22;6652;48.802;9.190;2023-02-01T12:18:05;8.60;87.00
13174;DHT22;6652;48.802;9.190;2023-02-01T12:20:52;8.00;86.50
13174;DHT22;6652;48.802;9.190;2023-02-01T12:23:33;8.00;86.80
13174;DHT22;6652;48.802;9.190;2023-02-01T12:26:13;7.90;87.20
13174;DHT22;6652;48.802;9.190;2023-02-01T12:29:15;7.90;87.30
13174;DHT22;6652;48.802;9.190;2023-02-01T12:32:01;8.00;87.60
13174;DHT22;6652;48.802;9.190;2023-02-01T12:37:48;7.90;87.10
13174;DHT22;6652;48.802;9.190;2023-02-01T12:40:32;7.80;87.10
13174;DHT22;6652;48.802;9.190;2023-02-01T12:43:03;7.70;87.50
13174;DHT22;6652;48.802;9.190;2023-02-01T12:45:39;7.60;87.80
13174;DHT22;6652;48.802;9.190;2023-02-01T12:48:21;7.60;88.00
13174;DHT22;6652;48.802;9.190;2023-02-01T12:50:52;7.60;88.40
13174;DHT22;6652;48.802;9.190;2023-02-01T12:53:24;7.60;88.50
13174;DHT22;6652;48.802;9.190;2023-02-01T12:55:56;7.60;88.70
13174;DHT22;6652;48.802;9.190;2023-02-01T12:58:30;7.60;88.80
13174;DHT22;6652;48.802;9.190;2023-02-01T13:01:02;7.50;88.90
13174;DHT22;6652;48.802;9.190;2023-02-01T13:03:36;7.50;89.20
13174;DHT22;6652;48.802;9.190;2023-02-01T13:06:09;7.50;89.60
13174;DHT22;6652;48.802;9.190;2023-02-01T13:08:42;7.50;90.30
13174;DHT22;6652;48.802;9.190;2023-02-01T13:11:15;7.40;90.70
13174;DHT22;6652;48.802;9.190;2023-02-01T13:13:45;7.30;91.00
13174;DHT22;6652;48.802;9.190;2023-02-01T13:16:15;7.20;91.20
13174;DHT22;6652;48.802;9.190;2023-02-01T13:18:49;7.20;91.40
13174;DHT22;6652;48.802;9.190;2023-02-01T13:21:20;7.20;91.40
13174;DHT22;6652;48.802;9.190;2023-02-01T13:23:48;7.30;91.30
13174;DHT22;6652;48.802;9.190;2023-02-01T13:26:18;7.40;91.30
13174;DHT22;6652;48.802;9.190;2023-02-01T13:28:47;7.40;91.00
13174;DHT22;6652;48.802;9.190;2023-02-01T13:31:32;7.40;90.80
13174;DHT22;6652;48.802;9.190;2023-02-01T13:34:28;7.40;90.70
13174;DHT22;6652;48.802;9.190;2023-02-01T13:37:08;7.40;90.70
13174;DHT22;6652;48.802;9.190;2023-02-01T13:39:51;7.50;90.60
13174;DHT22;6652;48.802;9.190;2023-02-01T13:42:25;7.50;90.80
13174;DHT22;6652;48.802;9.190;2023-02-01T13:44:57;7.60;90.30
13174;DHT22;6652;48.802;9.190;2023-02-01T13:47:29;7.60;90.30
13174;DHT22;6652;48.802;9.190;2023-02-01T13:49:59;7.50;90.20
13174;DHT22;6652;48.802;9.190;2023-02-01T13:52:35;7.50;90.60
13174;DHT22;6652;48.802;9.190;2023-02-01T13:55:33;7.40;90.80
13174;DHT22;6652;48.802;9.190;2023-02-01T13:58:30;7.40;91.50
13174;DHT22;6652;48.802;9.190;2023-02-01T14:01:34;7.30;92.10
13174;DHT22;6652;48.802;9.190;2023-02-01T14:04:03;7.20;92.10
13174;DHT22;6652;48.802;9.190;2023-02-01T14:06:41;7.20;92.10
13174;DHT22;6652;48.802;9.190;2023-02-01T14:09:18;7.10;92.30
13174;DHT22;6652;48.802;9.190;2023-02-01T14:11:48;7.20;92.40
13174;DHT22;6652;48.802;9.190;2023-02-01T14:14:43;7.20;92.40
13174;DHT22;6652;48.802;9.190;2023-02-01T14:17:35;7.30;92.10
13174;DHT22;6652;48.802;9.190;2023-02-01T14:23:25;7.30;91.90
13174;DHT22;6652;48.802;9.190;2023-02-01T14:28:48;7.30;91.30
13174;DHT22;6652;48.802;9.190;2023-02-01T14:31:32;7.30;91.20
13174;DHT22;6652;48.802;9.190;2023-02-01T14:34:02;7.30;91.10
13174;DHT22;6652;48.802;9.190;2023-02-01T14:36:41;7.40;91.00
13174;DHT22;6652;48.802;9.190;2023-02-01T14:39:27;7.20;91.00
13174;DHT22;6652;48.802;9.190;2023-02-01T14:41:59;7.20;91.10
13174;DHT22;6652;48.802;9.190;2023-02-01T14:44:33;7.20;91.00
13174;DHT22;6652;48.802;9.190;2023-02-01T14:47:27;7.20;90.80
13174;DHT22;6652;48.802;9.190;2023-02-01T14:49:58;7.20;90.90
13174;DHT22;6652;48.802;9.190;2023-02-01T14:52:32;7.10;91.00
13174;DHT22;6652;48.802;9.190;2023-02-01T14:55:03;7.10;91.40
13174;DHT22;6652;48.802;9.190;2023-02-01T14:57:34;7.10;91.70
13174;DHT22;6652;48.802;9.190;2023-02-01T15:00:07;7.00;91.90
13174;DHT22;6652;48.802;9.190;2023-02-01T15:02:36;6.90;91.90
13174;DHT22;6652;48.802;9.190;2023-02-01T15:05:22;7.00;92.00
13174;DHT22;6652;48.802;9.190;2023-02-01T15:07:50;7.00;92.00
13174;DHT22;6652;48.802;9.190;2023-02-01T15:10:17;7.00;92.00
13174;DHT22;6652;48.802;9.190;2023-02-01T15:12:45;7.00;91.90
13174;DHT22;6652;48.802;9.190;2023-02-01T15:15:16;7.00;91.70
13174;DHT22;6652;48.802;9.190;2023-02-01T15:17:51;6.90;91.60
13174;DHT22;6652;48.802;9.190;2023-02-01T15:20:20;6.90;91.60
13174;DHT22;6652;48.802;9.190;2023-02-01T15:22:57;6.90;91.70
13174;DHT22;6652;48.802;9.190;2023-02-01T15:25:26;6.90;91.60
13174;DHT22;6652;48.802;9.190;2023-02-01T15:27:55;6.90;91.60
13174;DHT22;6652;48.802;9.190;2023-02-01T15:30:23;6.80;91.60
13174;DHT22;6652;48.802;9.190;2023-02-01T15:33:04;6.90;91.70
13174;DHT22;6652;48.802;9.190;2023-02-01T15:35:42;6.90;91.60
13174;DHT22;6652;48.802;9.190;2023-02-01T15:38:32;7.00;91.70
13174;DHT22;6652;48.802;9.190;2023-02-01T15:41:02;6.80;91.70
13174;DHT22;6652;48.802;9.190;2023-02-01T15:43:30;6.90;91.70
13174;DHT22;6652;48.802;9.190;2023-02-01T15:45:59;6.90;91.70
13174;DHT22;6652;48.802;9.190;2023-02-01T15:48:32;6.80;91.60
13174;DHT22;6652;48.802;9.190;2023-02-01T15:51:01;6.80;91.60
13174;DHT22;6652;48.802;9.190;2023-02-01T15:53:28;6.90;91.70
13174;DHT22;6652;48.802;9.190;2023-02-01T15:55:59;6.90;91.50
13174;DHT22;6652;48.802;9.190;2023-02-01T15:58:27;6.90;91.40
13174;DHT22;6652;48.802;9.190;2023-02-01T16:00:56;6.90;91.40
13174;DHT22;6652;48.802;9.190;2023-02-01T16:03:35;6.80;91.30
13174;DHT22;6652;48.802;9.190;2023-02-01T16:06:04;6.90;91.30
13174;DHT22;6652;48.802;9.190;2023-02-01T16:08:32;6.90;91.10
13174;DHT22;6652;48.802;9.190;2023-02-01T16:11:20;7.40;91.30
13174;DHT22;6652;48.802;9.190;2023-02-01T16:13:48;6.80;90.90
13174;DHT22;6652;48.802;9.190;2023-02-01T16:16:15;6.80;90.70
13174;DHT22;6652;48.802;9.190;2023-02-01T16:18:44;6.80;90.80
13174;DHT22;6652;48.802;9.190;2023-02-01T16:21:11;6.80;90.70
13174;DHT22;6652;48.802;9.190;2023-02-01T16:23:38;6.80;90.60
13174;DHT22;6652;48.802;9.190;2023-02-01T16:26:05;6.80;90.70
13174;DHT22;6652;48.802;9.190;2023-02-01T16:28:32;6.80;90.60
13174;DHT22;6652;48.802;9.190;2023-02-01T16:31:00;6.80;90.60
13174;DHT22;6652;48.802;9.190;2023-02-01T16:33:27;6.80;90.50
13174;DHT22;6652;48.802;9.190;2023-02-01T16:35:56;6.80;90.50
13174;DHT22;6652;48.802;9.190;2023-02-01T16:38:28;6.80;90.50
13174;DHT22;6652;48.802;9.190;2023-02-01T16:40:54;6.80;90.40
13174;DHT22;6652;48.802;9.190;2023-02-01T16:43:24;6.80;90.40